createdAt,value
2018-07-04T00:00:06.070Z,4.87
2018-07-04T00:05:06.445Z,5.13
2018-07-04T00:10:08.096Z,5.13
2018-07-04T00:15:09.930Z,6.97
2018-07-04T00:20:10.503Z,6.80
2018-07-04T00:25:14.137Z,5.63
2018-07-04T00:30:14.634Z,5.93
2018-07-04T00:35:15.133Z,6.57
2018-07-04T00:40:15.727Z,6.47
2018-07-04T00:45:19.889Z,6.20
2018-07-04T00:50:20.086Z,6.67
2018-07-04T00:55:21.613Z,6.83
2018-07-04T01:00:22.517Z,7.00
2018-07-04T01:05:22.974Z,6.97
2018-07-04T01:10:23.540Z,8.07
2018-07-04T01:15:25.042Z,10.00
2018-07-04T01:20:29.374Z,11.03
2018-07-04T01:25:31.069Z,14.87
2018-07-04T01:30:31.277Z,12.73
2018-07-04T01:35:34.951Z,11.53
2018-07-04T01:40:35.290Z,10.80
2018-07-04T01:45:35.884Z,10.70
2018-07-04T01:50:36.390Z,10.50
2018-07-04T01:55:37.979Z,11.43
2018-07-04T02:00:38.419Z,9.80
2018-07-04T02:05:39.798Z,10.10
2018-07-04T02:10:40.164Z,11.00
2018-07-04T02:15:44.056Z,9.57
2018-07-04T02:20:44.534Z,9.63
2018-07-04T02:25:45.845Z,9.63
2018-07-04T02:30:46.302Z,10.57
2018-07-04T02:35:50.277Z,10.30
2018-07-04T02:40:50.898Z,11.57
2018-07-04T02:45:52.374Z,10.63
2018-07-04T02:50:52.889Z,10.63
2018-07-04T02:55:54.527Z,9.97
2018-07-04T03:00:55.585Z,8.90
2018-07-04T03:05:56.220Z,8.27
2018-07-04T03:10:56.754Z,9.80
2018-07-04T03:16:00.704Z,11.07
2018-07-04T03:21:01.190Z,10.27
2018-07-04T03:26:03.090Z,10.43
2018-07-04T03:31:03.549Z,8.60
2018-07-04T03:36:07.863Z,7.40
2018-07-04T03:41:08.362Z,6.80
2018-07-04T03:46:09.625Z,7.23
2018-07-04T03:51:09.852Z,8.30
2018-07-04T03:56:10.464Z,7.20
2018-07-04T04:01:10.932Z,6.57
2018-07-04T04:06:16.175Z,6.50
2018-07-04T04:11:16.505Z,6.97
2018-07-04T04:16:16.846Z,6.00
2018-07-04T04:21:17.318Z,7.50
2018-07-04T04:26:18.858Z,7.40
2018-07-04T04:31:19.366Z,6.37
2018-07-04T04:36:20.058Z,6.53
2018-07-04T04:41:20.420Z,6.73
2018-07-04T04:46:24.642Z,6.27
2018-07-04T04:51:24.764Z,5.83
2018-07-04T04:56:26.285Z,5.53
2018-07-04T05:01:26.663Z,4.80
2018-07-04T05:06:27.173Z,4.60
2018-07-04T05:11:27.332Z,4.43
2018-07-04T05:16:31.172Z,4.27
2018-07-04T05:21:31.658Z,3.43
2018-07-04T05:26:35.469Z,3.70
2018-07-04T05:31:35.801Z,4.00
2018-07-04T05:36:40.956Z,3.33
2018-07-04T05:41:41.346Z,3.03
2018-07-04T05:46:42.793Z,3.57
2018-07-04T05:51:43.192Z,3.47
2018-07-04T05:56:44.681Z,3.53
2018-07-04T06:01:45.186Z,3.83
2018-07-04T06:06:46.630Z,3.40
2018-07-04T06:11:46.999Z,2.80
2018-07-04T06:16:48.301Z,2.87
2018-07-04T06:21:48.733Z,3.13
2018-07-04T06:26:49.161Z,2.87
2018-07-04T06:31:49.506Z,2.97
2018-07-04T06:36:49.986Z,3.17
2018-07-04T06:41:37.886Z,3.33
2018-07-04T06:46:24.392Z,2.70
2018-07-04T06:51:06.267Z,3.07
2018-07-04T06:55:48.333Z,2.90
2018-07-04T07:00:30.238Z,2.70
2018-07-04T07:05:25.477Z,3.40
2018-07-04T07:10:25.889Z,3.20
2018-07-04T07:15:26.306Z,2.70
2018-07-04T07:20:26.670Z,2.87
2018-07-04T07:25:26.918Z,3.57
2018-07-04T07:30:27.220Z,2.87
2018-07-04T07:35:27.834Z,3.20
2018-07-04T07:40:28.430Z,2.77
2018-07-04T07:45:29.151Z,3.07
2018-07-04T07:50:29.622Z,3.37
2018-07-04T07:55:31.091Z,2.70
2018-07-04T08:00:31.591Z,3.13
2018-07-04T08:05:33.843Z,3.47
2018-07-04T08:10:34.486Z,3.20
2018-07-04T08:15:36.093Z,3.10
2018-07-04T08:20:36.472Z,2.80
2018-07-04T08:25:38.173Z,2.87
2018-07-04T08:30:38.482Z,3.10
2018-07-04T08:35:42.750Z,3.20
2018-07-04T08:40:43.135Z,2.77
2018-07-04T08:45:44.420Z,3.20
2018-07-04T08:50:45.058Z,3.20
2018-07-04T08:55:45.446Z,3.00
2018-07-04T09:00:46.176Z,2.80
2018-07-04T09:05:50.891Z,3.43
2018-07-04T09:10:51.816Z,2.70
2018-07-04T09:15:53.562Z,3.00
2018-07-04T09:20:54.770Z,3.00
2018-07-04T09:25:59.217Z,2.83
2018-07-04T09:30:59.792Z,2.80
2018-07-04T09:36:01.323Z,3.40
2018-07-04T09:41:02.275Z,3.40
2018-07-04T09:51:13.360Z,3.00
2018-07-04T09:56:17.521Z,2.92
2018-07-04T10:01:24.935Z,2.52
2018-07-04T10:06:28.812Z,2.83
2018-07-04T10:11:29.875Z,3.02
2018-07-04T10:16:32.162Z,2.90
2018-07-04T10:21:33.179Z,2.70
2018-07-04T10:26:37.605Z,2.95
2018-07-04T10:31:38.165Z,3.27
2018-07-04T10:36:40.019Z,2.92
2018-07-04T10:41:40.694Z,2.85
2018-07-04T10:46:42.431Z,2.98
2018-07-04T10:51:43.511Z,3.05
2018-07-04T10:56:48.766Z,3.20
2018-07-04T11:01:49.499Z,2.98
2018-07-04T11:06:54.317Z,3.07
2018-07-04T11:11:55.261Z,2.72
2018-07-04T11:16:59.467Z,3.10
2018-07-04T11:22:00.374Z,2.60
2018-07-04T11:27:02.360Z,3.03
2018-07-04T11:32:03.520Z,2.52
2018-07-04T11:37:08.207Z,2.83
2018-07-04T11:42:08.997Z,2.70
2018-07-04T11:47:00.844Z,2.20
2018-07-04T11:51:44.311Z,2.53
2018-07-04T11:56:31.024Z,2.57
2018-07-04T12:06:19.040Z,2.77
2018-07-04T12:11:07.960Z,2.60
2018-07-04T12:15:57.915Z,2.97
2018-07-04T12:20:43.347Z,2.93
2018-07-04T12:25:31.298Z,2.60
2018-07-04T12:30:14.726Z,2.70
2018-07-04T12:35:01.715Z,2.87
2018-07-04T12:39:47.010Z,2.87
2018-07-04T12:44:34.329Z,2.98
2018-07-04T12:49:21.129Z,2.87
2018-07-04T12:54:10.200Z,2.67
2018-07-04T12:59:05.550Z,3.47
2018-07-04T13:04:09.937Z,2.95
2018-07-04T13:09:11.485Z,2.92
2018-07-04T13:19:25.755Z,2.60
2018-07-04T13:24:27.529Z,3.00
2018-07-04T13:29:28.103Z,2.60
2018-07-04T13:34:33.351Z,2.92
2018-07-04T13:39:33.735Z,3.13
2018-07-04T13:44:37.382Z,3.03
2018-07-04T13:49:37.880Z,2.83
2018-07-04T13:54:41.746Z,2.87
2018-07-04T13:59:42.174Z,3.10
2018-07-04T14:04:43.284Z,3.00
2018-07-04T14:09:43.550Z,2.60
2018-07-04T14:14:47.249Z,3.20
2018-07-04T14:19:47.547Z,2.77
2018-07-04T14:24:49.110Z,2.70
2018-07-04T14:29:49.506Z,2.50
2018-07-04T14:34:53.264Z,3.00
2018-07-04T14:39:53.739Z,2.75
2018-07-04T14:44:57.928Z,2.62
2018-07-04T14:49:58.417Z,2.70
2018-07-04T14:54:59.947Z,2.33
2018-07-04T15:00:00.245Z,2.77
2018-07-04T15:05:01.820Z,2.93
2018-07-04T15:10:02.213Z,3.10
2018-07-04T15:15:05.669Z,3.23
2018-07-04T15:20:06.240Z,3.53
2018-07-04T15:25:10.209Z,2.87
2018-07-04T15:30:10.606Z,3.33
2018-07-04T15:35:13.193Z,2.83
2018-07-04T15:40:14.311Z,3.63
2018-07-04T15:45:18.723Z,3.57
2018-07-04T15:50:19.018Z,4.17
2018-07-04T15:55:22.537Z,3.73
2018-07-04T16:00:23.019Z,3.10
2018-07-04T16:05:24.173Z,3.40
2018-07-04T16:10:24.494Z,3.23
2018-07-04T16:15:28.381Z,3.33
2018-07-04T16:20:28.803Z,3.30
2018-07-04T16:25:32.910Z,3.27
2018-07-04T16:30:33.181Z,3.10
2018-07-04T16:35:36.801Z,3.10
2018-07-04T16:40:37.204Z,3.00
2018-07-04T16:45:38.542Z,3.90
2018-07-04T16:50:38.865Z,4.00
2018-07-04T16:55:40.179Z,3.50
2018-07-04T17:00:40.722Z,3.37
2018-07-04T17:05:42.331Z,3.07
2018-07-04T17:10:42.815Z,3.50
2018-07-04T17:15:46.954Z,3.97
2018-07-04T17:20:47.210Z,3.63
2018-07-04T17:25:50.821Z,3.90
2018-07-04T17:30:51.332Z,3.80
2018-07-04T17:35:56.399Z,4.03
2018-07-04T17:40:56.979Z,3.77
2018-07-04T17:46:01.204Z,4.17
2018-07-04T17:51:02.679Z,4.30
2018-07-04T17:56:03.470Z,3.87
2018-07-04T18:01:03.733Z,4.10
2018-07-04T18:06:09.372Z,3.80
2018-07-04T18:11:10.482Z,3.87
2018-07-04T18:16:13.123Z,4.03
2018-07-04T18:21:19.157Z,4.37
2018-07-04T18:26:20.047Z,4.70
2018-07-04T18:31:23.049Z,4.37
2018-07-04T18:36:24.575Z,4.50
2018-07-04T18:41:25.204Z,5.17
2018-07-04T18:46:28.809Z,6.87
2018-07-04T18:51:30.537Z,4.27
2018-07-04T18:56:32.235Z,4.80
2018-07-04T19:01:32.608Z,6.03
2018-07-04T19:06:36.212Z,4.70
2018-07-04T19:11:36.859Z,5.10
2018-07-04T19:16:38.265Z,5.00
2018-07-04T19:21:38.490Z,5.47
2018-07-04T19:26:38.879Z,4.90
2018-07-04T19:31:39.426Z,5.43
2018-07-04T19:36:40.964Z,5.90
2018-07-04T19:41:41.554Z,5.23
2018-07-04T19:46:45.452Z,6.13
2018-07-04T19:51:46.057Z,5.93
2018-07-04T19:56:50.365Z,6.23
2018-07-04T20:01:50.517Z,5.47
2018-07-04T20:06:51.851Z,6.40
2018-07-04T20:11:52.159Z,5.90
2018-07-04T20:16:52.631Z,5.87
2018-07-04T20:21:56.428Z,6.00
2018-07-04T20:26:56.615Z,6.10
2018-07-04T20:32:00.413Z,5.80
2018-07-04T20:37:00.686Z,6.97
2018-07-04T20:42:04.894Z,9.73
2018-07-04T20:47:05.167Z,7.17
2018-07-04T20:52:05.464Z,11.40
2018-07-04T20:57:06.350Z,10.43
2018-07-04T21:02:06.605Z,9.83
2018-07-04T21:07:06.862Z,7.57
2018-07-04T21:12:08.189Z,8.63
2018-07-04T21:17:09.009Z,7.77
2018-07-04T21:22:10.005Z,7.20
2018-07-04T21:27:10.829Z,7.23
2018-07-04T21:32:14.997Z,7.60
2018-07-04T21:37:15.555Z,7.50
2018-07-04T21:42:16.518Z,8.30
2018-07-04T21:47:17.254Z,7.97
2018-07-04T21:52:18.063Z,7.70
2018-07-04T21:57:18.721Z,8.07
2018-07-04T22:02:22.405Z,7.40
2018-07-04T22:07:22.943Z,7.77
2018-07-04T22:12:26.615Z,7.60
2018-07-04T22:17:27.215Z,6.90
2018-07-04T22:22:28.744Z,6.87
2018-07-04T22:27:29.102Z,6.67
2018-07-04T22:32:33.196Z,6.90
2018-07-04T22:37:33.678Z,6.90
2018-07-04T22:42:35.236Z,6.80
2018-07-04T22:47:35.377Z,6.53
2018-07-04T22:52:36.793Z,7.30
2018-07-04T22:57:37.295Z,6.43
2018-07-04T23:02:41.893Z,6.00
2018-07-04T23:07:42.644Z,6.47
2018-07-04T23:12:43.427Z,6.67
2018-07-04T23:17:43.942Z,6.93
2018-07-04T23:22:48.275Z,6.10
2018-07-04T23:27:48.911Z,6.53
2018-07-04T23:32:52.956Z,7.20
2018-07-04T23:37:53.204Z,6.80
2018-07-04T23:42:53.860Z,6.80
2018-07-04T23:47:54.188Z,7.13
2018-07-04T23:52:54.741Z,7.80
2018-07-04T23:57:55.157Z,7.57
